Terminal Aerodrome Forecast
Issued by NWS Albany, NY

Home | Current Version | Previous Version | Text Only | Print | Product List | Glossary On
Versions: 1 2 3 4 5 6 7 8 9 10 11 12 13 14 15 16 17 18
989
FTUS41 KALY 011127
TAFALB
TAF
KALB 011127Z 0112/0212 17006KT P6SM -RA FEW060 OVC070
     FM011400 15007KT 6SM -RA BR SCT025 OVC050
     FM011700 14008KT 4SM -RA BR OVC025
     FM012000 15008KT 4SM -RA BR OVC015
     FM020000 16006KT 4SM -DZ BR BKN007 OVC015
     FM020600 17006KT 6SM BR OVC007=

USA.gov is the U.S. government's official web portal to all federal, state and local government web resources and services.